Time;durP1;ratioP1;P1;durP2;ratioP2;P2;SDS_P1;SDS_P2;PMS_P1;PMS_P2;Temp;Humidity;BMP_temperature;BMP_pressure;BME280_temperature;BME280_humidity;BME280_pressure;Samples;Min_cycle;Max_cycle;Signal;HPM_P1;HPM_P2
2023/02/28 00:00:49;;;;;;;1.93;1.83;;;7.30;98.50;;;;;;5053114;28;20287;-73
2023/02/28 00:03:15;;;;;;;2.03;1.93;;;7.30;98.50;;;;;;5052141;28;20183;-73
2023/02/28 00:05:41;;;;;;;2.77;1.80;;;7.40;98.50;;;;;;5050216;28;20189;-72
2023/02/28 00:08:07;;;;;;;1.67;1.57;;;7.40;98.50;;;;;;5051911;28;20972;-73
2023/02/28 00:10:33;;;;;;;4.57;2.30;;;7.40;98.50;;;;;;5054095;28;20176;-73
2023/02/28 00:13:05;;;;;;;2.30;2.10;;;7.40;98.40;;;;;;5052035;28;20182;-73
2023/02/28 00:15:31;;;;;;;2.47;2.10;;;7.30;98.50;;;;;;5053954;28;20211;-73
2023/02/28 00:17:57;;;;;;;3.13;1.93;;;7.30;98.50;;;;;;5052029;28;20651;-73
2023/02/28 00:20:24;;;;;;;3.07;1.87;;;7.20;98.50;;;;;;5055572;28;20172;-73
2023/02/28 00:22:51;;;;;;;2.33;2.17;;;7.30;98.50;;;;;;5053013;28;20184;-73
2023/02/28 00:25:23;;;;;;;3.10;2.07;;;7.20;98.50;;;;;;5053534;28;20183;-73
2023/02/28 00:27:49;;;;;;;2.13;2.03;;;7.30;98.50;;;;;;5052579;28;20684;-73
2023/02/28 00:30:18;;;;;;;3.47;1.97;;;7.30;98.50;;;;;;5052870;28;20187;-73
2023/02/28 00:32:44;;;;;;;2.93;1.70;;;7.40;98.50;;;;;;5055090;28;20184;-73
2023/02/28 00:35:10;;;;;;;2.20;1.73;;;7.40;98.50;;;;;;5052847;28;20688;-72
2023/02/28 00:37:36;;;;;;;1.77;1.67;;;7.40;98.50;;;;;;5052979;28;20207;-73
2023/02/28 00:40:04;;;;;;;2.40;1.70;;;7.50;98.50;;;;;;5049500;28;20746;-73
2023/02/28 00:42:30;;;;;;;3.70;1.70;;;7.50;98.50;;;;;;5050882;28;20668;-72
2023/02/28 00:44:56;;;;;;;3.33;1.93;;;7.50;98.50;;;;;;5049070;28;20225;-74
2023/02/28 00:47:22;;;;;;;1.80;1.67;;;7.60;98.50;;;;;;5051514;28;20267;-73
2023/02/28 00:49:48;;;;;;;2.10;1.93;;;7.60;98.50;;;;;;5050136;28;20182;-74
2023/02/28 00:52:13;;;;;;;1.77;1.67;;;7.60;98.50;;;;;;5044175;28;20172;-74
2023/02/28 00:54:39;;;;;;;2.20;2.00;;;7.50;98.50;;;;;;5051443;28;20215;-75
2023/02/28 00:57:04;;;;;;;1.67;1.57;;;7.50;98.50;;;;;;5053058;28;20219;-72
2023/02/28 00:59:30;;;;;;;4.07;1.80;;;7.50;98.50;;;;;;5053590;28;20176;-74
2023/02/28 01:01:56;;;;;;;2.77;1.73;;;7.50;98.50;;;;;;5048483;28;20183;-73
2023/02/28 01:04:22;;;;;;;2.03;1.90;;;7.40;98.50;;;;;;5048295;28;20186;-74
2023/02/28 01:06:47;;;;;;;1.70;1.60;;;7.40;98.50;;;;;;5051423;28;20183;-73
2023/02/28 01:09:13;;;;;;;1.87;1.77;;;7.30;98.50;;;;;;5047360;28;20570;-73
2023/02/28 01:11:40;;;;;;;2.83;1.83;;;7.20;98.50;;;;;;5052118;28;20184;-74
2023/02/28 01:14:06;;;;;;;2.20;2.00;;;7.20;98.50;;;;;;5051421;28;20700;-75
2023/02/28 01:16:32;;;;;;;2.17;2.03;;;7.20;98.50;;;;;;5052328;28;20301;-74
2023/02/28 01:18:58;;;;;;;2.50;1.67;;;7.20;98.50;;;;;;5056601;28;20282;-73
2023/02/28 01:21:24;;;;;;;4.77;2.30;;;7.10;98.50;;;;;;5054808;28;20175;-73
2023/02/28 01:23:51;;;;;;;2.23;2.07;;;7.10;98.50;;;;;;5049012;28;20210;-73
2023/02/28 01:26:22;;;;;;;2.43;2.20;;;7.10;98.50;;;;;;5049598;28;20573;-74
2023/02/28 01:28:48;;;;;;;2.53;2.33;;;7.10;98.50;;;;;;5050477;28;20184;-72
2023/02/28 01:31:15;;;;;;;3.07;2.23;;;7.10;98.50;;;;;;5053903;28;20243;-74
2023/02/28 01:33:41;;;;;;;2.87;2.67;;;7.10;98.50;;;;;;5051069;28;20186;-74
2023/02/28 01:36:09;;;;;;;5.27;3.13;;;7.10;98.50;;;;;;5053204;28;20215;-73
2023/02/28 01:38:35;;;;;;;2.97;2.63;;;7.20;98.50;;;;;;5046326;28;20187;-74
2023/02/28 01:41:01;;;;;;;4.30;2.87;;;7.20;98.50;;;;;;5053253;28;20175;-74
2023/02/28 01:43:29;;;;;;;4.17;2.33;;;7.20;98.50;;;;;;5052256;28;20860;-73
2023/02/28 01:45:57;;;;;;;3.03;2.70;;;7.20;98.50;;;;;;5051940;28;20785;-73
2023/02/28 01:48:30;;;;;;;3.17;2.47;;;7.20;98.50;;;;;;5052315;28;20187;-73
2023/02/28 01:51:01;;;;;;;4.47;2.77;;;7.20;98.50;;;;;;5050709;28;20226;-74
2023/02/28 01:53:33;;;;;;;3.03;2.07;;;7.20;98.50;;;;;;5050004;28;20184;-72
2023/02/28 01:55:59;;;;;;;2.33;2.03;;;7.30;98.50;;;;;;5045314;28;20222;-73
2023/02/28 01:58:25;;;;;;;3.67;2.30;;;7.20;98.50;;;;;;5045309;28;20187;-73
2023/02/28 02:00:51;;;;;;;3.57;2.43;;;7.20;98.50;;;;;;5049266;28;20180;-74
2023/02/28 02:03:19;;;;;;;6.63;2.93;;;7.20;98.50;;;;;;5055258;28;20233;-73
2023/02/28 02:05:48;;;;;;;3.30;2.37;;;7.20;98.50;;;;;;5050283;28;20622;-74
2023/02/28 02:08:18;;;;;;;6.57;3.27;;;7.20;98.50;;;;;;5051307;28;21104;-73
2023/02/28 02:10:49;;;;;;;4.17;3.13;;;7.20;98.50;;;;;;5051963;28;20241;-73
2023/02/28 02:13:39;;;;;;;3.53;2.90;;;7.10;98.50;;;;;;5049919;28;20265;-73
2023/02/28 02:16:36;;;;;;;4.70;3.53;;;7.00;98.50;;;;;;5053730;28;20207;-73
2023/02/28 02:19:23;;;;;;;5.57;2.63;;;7.00;98.50;;;;;;5006643;28;20199;-74
2023/02/28 02:22:12;;;;;;;7.60;3.33;;;7.10;98.50;;;;;;4994478;28;20749;-74
2023/02/28 02:25:06;;;;;;;4.07;2.80;;;6.90;98.50;;;;;;5006411;28;20192;-72
2023/02/28 02:28:02;;;;;;;3.83;2.37;;;6.90;98.50;;;;;;5007874;28;20196;-74
2023/02/28 02:30:55;;;;;;;6.27;2.10;;;6.90;98.50;;;;;;5007482;28;20192;-73
2023/02/28 02:33:47;;;;;;;5.77;2.77;;;6.90;98.50;;;;;;5008214;28;20839;-72
2023/02/28 02:36:30;;;;;;;3.13;2.57;;;7.00;98.50;;;;;;4944186;28;20245;-73
2023/02/28 02:39:03;;;;;;;5.17;3.17;;;7.00;98.50;;;;;;4942093;28;20182;-74
2023/02/28 02:41:46;;;;;;;6.30;3.17;;;7.00;98.50;;;;;;4942705;28;20303;-73
2023/02/28 02:44:19;;;;;;;5.57;2.70;;;6.90;98.50;;;;;;4940893;28;20218;-73
2023/02/28 02:46:45;;;;;;;4.47;2.60;;;6.90;98.50;;;;;;4941989;28;20230;-73
2023/02/28 02:49:30;;;;;;;5.87;3.17;;;6.90;98.50;;;;;;4944510;28;20195;-74
2023/02/28 02:51:58;;;;;;;10.37;3.27;;;6.90;98.50;;;;;;4941218;29;20774;-72
2023/02/28 02:54:29;;;;;;;5.07;3.03;;;6.90;98.50;;;;;;4943737;28;20708;-73
2023/02/28 02:56:59;;;;;;;4.50;3.07;;;6.90;98.50;;;;;;4976581;28;20833;-74
2023/02/28 02:59:28;;;;;;;6.10;3.70;;;6.90;98.50;;;;;;4979217;28;20221;-73
2023/02/28 03:01:57;;;;;;;4.37;2.57;;;6.90;98.50;;;;;;4976057;28;20217;-74
2023/02/28 03:04:27;;;;;;;9.70;3.07;;;6.90;98.50;;;;;;4981398;28;20608;-73
2023/02/28 03:06:54;;;;;;;6.80;3.03;;;7.00;98.50;;;;;;4981895;28;20201;-73
2023/02/28 03:09:24;;;;;;;6.93;3.50;;;7.00;98.50;;;;;;4976945;28;20205;-74
2023/02/28 03:11:54;;;;;;;7.93;3.37;;;7.00;98.50;;;;;;4981697;28;20190;-73
2023/02/28 03:14:34;;;;;;;8.23;3.03;;;7.10;98.50;;;;;;5043029;28;20199;-72
2023/02/28 03:17:11;;;;;;;4.83;2.63;;;7.10;98.50;;;;;;5048455;28;20215;-73
2023/02/28 03:20:06;;;;;;;5.77;2.63;;;7.00;98.50;;;;;;5049442;28;20179;-74
2023/02/28 03:22:37;;;;;;;6.77;3.53;;;7.00;98.50;;;;;;5049729;28;20187;-73
2023/02/28 03:25:22;;;;;;;4.27;2.97;;;6.90;98.50;;;;;;5052597;28;20223;-73
2023/02/28 03:28:02;;;;;;;5.63;2.87;;;6.90;98.50;;;;;;5046774;28;20290;-73
2023/02/28 03:30:35;;;;;;;7.70;3.40;;;6.90;98.50;;;;;;5048378;28;20172;-74
2023/02/28 03:33:14;;;;;;;4.87;3.13;;;6.90;98.50;;;;;;5042956;28;20580;-73
2023/02/28 03:35:45;;;;;;;3.67;2.60;;;6.90;98.50;;;;;;5048530;28;20257;-73
2023/02/28 03:38:24;;;;;;;4.07;2.80;;;6.90;98.50;;;;;;5053156;28;20176;-73
2023/02/28 03:41:16;;;;;;;6.33;3.33;;;6.90;98.50;;;;;;5047431;28;20172;-73
2023/02/28 03:43:53;;;;;;;5.87;2.60;;;6.90;98.50;;;;;;4997025;28;20695;-74
2023/02/28 03:46:24;;;;;;;4.07;2.47;;;6.90;98.50;;;;;;5014201;28;20194;-73
2023/02/28 03:49:10;;;;;;;2.87;2.40;;;7.00;98.50;;;;;;5005330;28;20261;-74
2023/02/28 03:51:38;;;;;;;3.40;2.37;;;7.00;98.50;;;;;;5002875;28;20203;-73
2023/02/28 03:54:13;;;;;;;5.40;2.83;;;7.00;98.50;;;;;;5005515;28;20216;-73
2023/02/28 03:57:12;;;;;;;3.97;2.57;;;7.10;98.50;;;;;;5001267;28;20307;-73
2023/02/28 03:59:42;;;;;;;3.37;2.73;;;7.00;98.50;;;;;;5003514;28;20613;-73
2023/02/28 04:02:08;;;;;;;8.87;3.30;;;7.10;98.50;;;;;;5004057;28;20201;-73
2023/02/28 04:04:34;;;;;;;5.53;2.97;;;7.10;98.50;;;;;;5003714;28;20260;-73
2023/02/28 04:07:08;;;;;;;4.90;2.83;;;7.10;98.50;;;;;;5003465;28;20687;-73
2023/02/28 04:09:34;;;;;;;4.87;2.67;;;7.10;98.50;;;;;;5003478;28;20666;-73
2023/02/28 04:12:00;;;;;;;3.67;2.53;;;7.10;98.50;;;;;;5003395;28;20292;-74
2023/02/28 04:14:26;;;;;;;3.07;2.77;;;7.10;98.50;;;;;;5004053;28;20956;-73
2023/02/28 04:16:52;;;;;;;3.60;2.77;;;7.10;98.50;;;;;;5002877;28;20306;-74
2023/02/28 04:19:18;;;;;;;5.03;3.00;;;7.20;98.50;;;;;;4986087;28;20248;-73
2023/02/28 04:21:49;;;;;;;6.67;2.67;;;7.10;98.50;;;;;;5046813;28;20794;-74
2023/02/28 04:24:17;;;;;;;6.00;2.80;;;7.10;98.50;;;;;;5051684;28;20195;-74
2023/02/28 04:26:46;;;;;;;4.63;3.07;;;7.10;98.50;;;;;;5055722;28;20248;-74
2023/02/28 04:29:18;;;;;;;9.27;3.27;;;7.10;98.50;;;;;;5055555;28;20184;-73
2023/02/28 04:31:43;;;;;;;4.33;3.83;;;7.10;98.50;;;;;;5045503;28;20217;-72
2023/02/28 04:34:09;;;;;;;6.57;3.57;;;7.10;98.50;;;;;;5050357;28;20693;-74
2023/02/28 04:36:34;;;;;;;5.83;3.77;;;7.10;98.50;;;;;;5055597;28;20252;-74
2023/02/28 04:39:00;;;;;;;7.00;3.70;;;7.10;98.50;;;;;;5052731;28;20258;-75
2023/02/28 04:41:26;;;;;;;5.40;2.97;;;7.10;98.50;;;;;;5046253;28;20753;-73
2023/02/28 04:43:52;;;;;;;3.87;2.50;;;7.10;98.50;;;;;;5047529;28;20230;-72
2023/02/28 04:46:19;;;;;;;3.73;2.70;;;7.10;98.50;;;;;;5050365;28;20198;-73
2023/02/28 04:48:45;;;;;;;7.60;3.30;;;7.00;98.50;;;;;;5052159;28;20253;-72
2023/02/28 04:51:13;;;;;;;6.70;2.90;;;7.10;98.50;;;;;;5050830;28;20660;-74
2023/02/28 04:53:40;;;;;;;4.27;2.57;;;7.00;98.50;;;;;;5047013;28;20182;-73
2023/02/28 04:56:07;;;;;;;2.93;2.27;;;7.00;98.50;;;;;;5050149;28;21005;-73
2023/02/28 04:58:33;;;;;;;2.70;2.50;;;7.10;98.50;;;;;;5046152;28;20194;-73
2023/02/28 05:01:12;;;;;;;6.70;2.63;;;7.00;98.50;;;;;;5043297;28;20183;-72
2023/02/28 05:03:40;;;;;;;4.70;2.33;;;7.10;98.50;;;;;;5047480;28;20198;-74
2023/02/28 05:06:07;;;;;;;6.57;2.57;;;7.00;98.50;;;;;;5045152;28;20187;-73
2023/02/28 05:08:33;;;;;;;3.80;2.40;;;6.90;98.50;;;;;;5045311;28;20229;-73
2023/02/28 05:11:00;;;;;;;4.17;2.43;;;6.90;98.50;;;;;;5052318;28;20592;-74
2023/02/28 05:13:27;;;;;;;3.97;2.27;;;6.90;98.50;;;;;;5050755;28;20172;-73
2023/02/28 05:15:53;;;;;;;3.80;3.20;;;6.90;98.50;;;;;;5046492;28;20194;-74
2023/02/28 05:18:18;;;;;;;9.87;3.17;;;6.90;98.50;;;;;;5055920;28;20574;-72
2023/02/28 05:20:44;;;;;;;6.00;2.70;;;6.90;98.50;;;;;;5046549;28;20193;-77
2023/02/28 05:23:14;;;;;;;6.90;3.37;;;6.80;98.50;;;;;;5049063;28;20195;-73
2023/02/28 05:25:41;;;;;;;4.07;2.67;;;6.80;98.50;;;;;;5050311;28;20207;-74
2023/02/28 05:28:07;;;;;;;3.97;2.73;;;6.90;98.50;;;;;;5045828;28;20183;-74
2023/02/28 05:30:33;;;;;;;6.27;3.63;;;6.90;98.50;;;;;;5049873;28;20179;-73
2023/02/28 05:32:59;;;;;;;3.90;2.13;;;6.90;98.50;;;;;;5049691;28;20194;-73
2023/02/28 05:35:26;;;;;;;5.33;3.00;;;6.90;98.50;;;;;;5054403;28;20215;-71
2023/02/28 05:37:52;;;;;;;7.63;3.50;;;6.90;98.50;;;;;;5049203;28;20226;-74
2023/02/28 05:40:20;;;;;;;6.23;3.30;;;7.00;98.50;;;;;;5048977;28;20175;-74
2023/02/28 05:42:47;;;;;;;4.33;2.57;;;7.00;98.50;;;;;;5050318;28;20604;-74
2023/02/28 05:45:12;;;;;;;5.70;3.50;;;7.00;98.50;;;;;;5047300;28;20186;-74
2023/02/28 05:47:38;;;;;;;5.20;3.27;;;7.10;98.50;;;;;;5051046;28;20191;-74
2023/02/28 05:50:05;;;;;;;4.40;2.93;;;7.10;98.50;;;;;;5049562;28;20198;-74
2023/02/28 05:52:31;;;;;;;7.53;3.60;;;7.10;98.50;;;;;;5052959;28;20183;-75
2023/02/28 05:54:56;;;;;;;6.67;3.93;;;7.10;98.50;;;;;;5050589;28;20187;-75
2023/02/28 05:57:22;;;;;;;10.70;3.70;;;7.10;98.50;;;;;;5048000;28;20219;-74
2023/02/28 05:59:48;;;;;;;6.20;3.87;;;7.10;98.50;;;;;;5050909;28;20192;-73
2023/02/28 06:02:16;;;;;;;6.33;3.83;;;7.10;98.50;;;;;;5052477;28;20251;-73
2023/02/28 06:04:42;;;;;;;7.27;3.63;;;7.10;98.50;;;;;;5053685;28;20176;-74
2023/02/28 06:07:09;;;;;;;6.07;2.93;;;7.10;98.50;;;;;;5055303;28;20197;-73
2023/02/28 06:09:35;;;;;;;5.80;3.17;;;7.20;98.50;;;;;;5049754;28;20184;-74
2023/02/28 06:12:03;;;;;;;6.70;3.87;;;7.20;98.50;;;;;;5054401;28;20179;-73
2023/02/28 06:14:31;;;;;;;7.63;4.27;;;7.30;98.50;;;;;;5052763;28;20176;-73
2023/02/28 06:16:57;;;;;;;5.20;3.77;;;7.30;98.50;;;;;;5052877;28;20953;-73
2023/02/28 06:19:25;;;;;;;9.97;3.90;;;7.40;98.50;;;;;;5050871;28;21798;-74
2023/02/28 06:21:52;;;;;;;7.13;3.93;;;7.40;98.50;;;;;;5054642;28;20179;-73
2023/02/28 06:24:19;;;;;;;9.63;3.97;;;7.40;98.50;;;;;;5052124;28;20571;-72
2023/02/28 06:26:44;;;;;;;6.57;4.03;;;7.50;98.50;;;;;;5056230;28;20206;-73
2023/02/28 06:29:10;;;;;;;10.30;4.97;;;7.60;98.50;;;;;;5048974;28;20207;-73
2023/02/28 06:31:36;;;;;;;8.43;3.30;;;7.60;98.50;;;;;;5051638;28;20184;-72
2023/02/28 06:34:01;;;;;;;7.40;4.33;;;7.70;98.50;;;;;;5049628;28;20210;-74
2023/02/28 06:36:27;;;;;;;11.80;4.13;;;7.70;98.50;;;;;;5046052;28;20219;-74
2023/02/28 06:38:55;;;;;;;5.33;3.93;;;7.80;98.50;;;;;;5049396;28;20195;-73
2023/02/28 06:41:25;;;;;;;10.40;4.10;;;7.80;98.50;;;;;;5051443;28;20183;-74
2023/02/28 06:43:51;;;;;;;9.50;4.93;;;7.90;98.50;;;;;;5048717;28;20204;-73
2023/02/28 06:46:17;;;;;;;7.87;4.30;;;7.90;98.50;;;;;;5052242;28;20201;-74
2023/02/28 06:48:44;;;;;;;8.67;5.00;;;7.90;98.50;;;;;;5050813;28;20188;-73
2023/02/28 06:51:16;;;;;;;7.50;4.27;;;8.00;98.00;;;;;;5054756;28;20559;-74
2023/02/28 06:53:42;;;;;;;10.30;5.27;;;8.00;97.90;;;;;;5053090;28;20187;-73
2023/02/28 06:56:11;;;;;;;7.77;4.67;;;8.00;98.40;;;;;;5052293;28;20214;-72
2023/02/28 06:58:39;;;;;;;11.30;5.23;;;8.00;98.30;;;;;;5051197;28;21085;-72
2023/02/28 07:01:05;;;;;;;9.00;4.53;;;8.00;97.90;;;;;;5044570;28;20601;-72
2023/02/28 07:03:31;;;;;;;16.17;5.23;;;8.00;97.80;;;;;;5050036;28;20195;-73
2023/02/28 07:05:57;;;;;;;8.77;5.53;;;8.10;97.70;;;;;;5053672;28;20292;-73
2023/02/28 07:08:24;;;;;;;10.50;4.90;;;8.10;98.00;;;;;;5050370;28;20230;-74
2023/02/28 07:10:56;;;;;;;7.13;4.67;;;8.00;97.80;;;;;;5055092;28;20201;-74
2023/02/28 07:13:23;;;;;;;9.30;5.00;;;8.00;97.80;;;;;;5050471;28;20187;-73
2023/02/28 07:16:05;;;;;;;11.67;5.40;;;8.10;97.70;;;;;;5049408;28;20206;-73
2023/02/28 07:18:31;;;;;;;7.87;4.93;;;8.00;97.40;;;;;;5045225;28;20610;-73
2023/02/28 07:20:57;;;;;;;8.53;4.63;;;8.10;97.50;;;;;;5046373;28;20298;-73
2023/02/28 07:23:23;;;;;;;7.77;5.10;;;8.10;97.50;;;;;;5051197;28;20344;-73
2023/02/28 07:25:50;;;;;;;7.90;4.80;;;8.10;97.30;;;;;;5057105;28;20180;-73
2023/02/28 07:28:16;;;;;;;10.10;4.47;;;8.10;97.70;;;;;;5054299;28;20694;-73
2023/02/28 07:30:42;;;;;;;9.43;4.87;;;8.10;97.50;;;;;;5051584;28;20184;-72
2023/02/28 07:33:08;;;;;;;10.30;4.53;;;8.10;97.40;;;;;;5053255;28;20175;-72
2023/02/28 07:35:34;;;;;;;6.77;4.57;;;8.10;97.10;;;;;;5050897;28;20255;-73
2023/02/28 07:38:00;;;;;;;12.10;4.43;;;8.20;97.70;;;;;;5053073;28;20371;-73
2023/02/28 07:40:26;;;;;;;7.90;4.80;;;8.20;97.60;;;;;;5052653;28;21936;-74
2023/02/28 07:42:51;;;;;;;7.80;4.83;;;8.30;97.20;;;;;;5052442;28;20240;-73
2023/02/28 07:45:17;;;;;;;5.57;4.83;;;8.30;97.30;;;;;;5053980;28;20187;-73
2023/02/28 07:47:44;;;;;;;9.63;4.23;;;8.40;97.20;;;;;;5057016;28;20185;-73
2023/02/28 07:50:12;;;;;;;9.70;4.37;;;8.40;96.80;;;;;;5053124;28;20184;-72
2023/02/28 07:52:39;;;;;;;10.97;5.13;;;8.40;96.60;;;;;;5056220;28;20188;-74
2023/02/28 07:55:06;;;;;;;9.20;5.03;;;8.50;96.10;;;;;;5053097;28;20183;-73
2023/02/28 07:57:32;;;;;;;7.97;4.83;;;8.40;96.30;;;;;;5052888;28;20204;-72
2023/02/28 07:59:58;;;;;;;9.23;5.10;;;8.50;96.30;;;;;;5049322;28;20183;-74
2023/02/28 08:02:24;;;;;;;9.40;5.30;;;8.50;96.60;;;;;;5048189;28;20240;-74
2023/02/28 08:04:49;;;;;;;12.70;5.20;;;8.50;96.90;;;;;;5052232;28;20199;-73
2023/02/28 08:07:16;;;;;;;7.63;4.80;;;8.60;97.20;;;;;;5050881;28;20192;-72
2023/02/28 08:09:43;;;;;;;6.67;4.47;;;8.70;96.80;;;;;;5051153;28;20556;-72
2023/02/28 08:12:09;;;;;;;11.33;5.67;;;8.80;96.80;;;;;;5051446;28;20190;-73
2023/02/28 08:14:35;;;;;;;8.20;5.00;;;8.90;96.50;;;;;;5053992;28;20187;-73
2023/02/28 08:17:01;;;;;;;7.47;4.57;;;8.90;96.40;;;;;;5051773;28;20666;-73
2023/02/28 08:19:27;;;;;;;8.00;4.83;;;9.10;96.40;;;;;;5055426;28;20194;-73
2023/02/28 08:21:54;;;;;;;8.80;4.40;;;9.20;95.80;;;;;;5051763;28;20184;-73
2023/02/28 08:24:20;;;;;;;10.00;4.93;;;9.30;95.60;;;;;;5051060;28;20247;-73
2023/02/28 08:26:45;;;;;;;11.63;4.87;;;9.40;95.40;;;;;;5053101;28;20199;-73
2023/02/28 08:29:11;;;;;;;10.17;4.90;;;9.50;95.40;;;;;;5053822;28;20207;-73
2023/02/28 08:31:37;;;;;;;15.30;5.60;;;9.60;95.00;;;;;;5052278;28;20214;-73
2023/02/28 08:34:12;;;;;;;6.88;4.63;;;9.70;94.60;;;;;;5046325;28;20180;-73
2023/02/28 08:36:38;;;;;;;8.87;4.93;;;9.80;94.40;;;;;;5046962;28;20704;-74
2023/02/28 08:39:04;;;;;;;11.03;5.27;;;9.80;94.20;;;;;;5048732;28;20734;-74
2023/02/28 08:41:30;;;;;;;8.32;5.00;;;9.90;94.20;;;;;;5050848;28;20179;-75
2023/02/28 08:43:56;;;;;;;8.07;5.30;;;9.90;94.20;;;;;;5050343;28;20262;-74
2023/02/28 08:46:23;;;;;;;10.32;5.28;;;10.00;94.00;;;;;;5052221;28;20189;-74
2023/02/28 08:48:53;;;;;;;8.73;5.20;;;10.00;94.00;;;;;;5049567;28;20191;-72
2023/02/28 08:51:25;;;;;;;8.97;5.30;;;10.00;93.80;;;;;;5049228;28;20192;-72
2023/02/28 08:53:53;;;;;;;6.25;4.72;;;10.10;93.90;;;;;;5053074;28;20187;-73
2023/02/28 08:56:19;;;;;;;12.10;5.40;;;10.10;93.70;;;;;;5053174;28;20203;-73
2023/02/28 08:58:46;;;;;;;10.10;5.47;;;10.20;93.40;;;;;;5051788;28;20183;-72
2023/02/28 09:01:16;;;;;;;14.07;6.60;;;10.10;93.40;;;;;;5049417;28;20796;-73
2023/02/28 09:03:43;;;;;;;13.83;6.20;;;10.10;93.80;;;;;;5051279;28;20203;-72
2023/02/28 09:06:10;;;;;;;10.77;5.15;;;10.10;93.90;;;;;;5051263;28;20198;-74
2023/02/28 09:08:36;;;;;;;8.23;5.15;;;10.10;94.20;;;;;;5054126;28;20262;-74
2023/02/28 09:11:02;;;;;;;9.50;6.65;;;10.20;94.10;;;;;;5051938;28;20219;-74
2023/02/28 09:13:29;;;;;;;19.10;8.43;;;10.10;93.90;;;;;;5052792;28;20678;-73
2023/02/28 09:15:58;;;;;;;18.55;8.52;;;10.20;92.10;;;;;;5055145;28;20203;-74
2023/02/28 09:18:24;;;;;;;19.03;9.00;;;10.10;91.80;;;;;;5048891;28;20167;-74
2023/02/28 09:20:50;;;;;;;18.98;8.85;;;10.00;92.20;;;;;;5053029;28;20187;-74
2023/02/28 09:23:16;;;;;;;17.70;8.75;;;10.00;92.50;;;;;;5056434;28;20179;-73
2023/02/28 09:25:48;;;;;;;17.08;7.90;;;9.70;92.80;;;;;;5043875;28;20876;-73
2023/02/28 09:28:15;;;;;;;13.40;6.93;;;9.70;93.10;;;;;;5050947;28;20237;-73
2023/02/28 09:30:41;;;;;;;14.93;7.43;;;9.60;93.70;;;;;;5052102;28;20236;-74
2023/02/28 09:33:08;;;;;;;17.57;8.57;;;9.60;94.10;;;;;;5045767;28;20232;-73
2023/02/28 09:35:33;;;;;;;23.67;9.25;;;9.60;93.90;;;;;;5051874;28;20607;-74
2023/02/28 09:37:59;;;;;;;21.88;9.23;;;9.60;93.80;;;;;;5053164;28;20302;-73
2023/02/28 09:40:26;;;;;;;22.37;9.60;;;9.60;93.90;;;;;;5043751;28;20583;-72
2023/02/28 09:42:54;;;;;;;21.60;9.17;;;9.70;93.50;;;;;;5051557;28;20613;-73
2023/02/28 09:45:29;;;;;;;18.33;9.37;;;9.70;93.60;;;;;;5052928;28;20619;-74
2023/02/28 09:47:59;;;;;;;15.40;7.87;;;9.70;93.40;;;;;;5050343;28;20186;-73
2023/02/28 09:50:35;;;;;;;15.13;7.90;;;9.80;93.40;;;;;;5049313;28;20183;-74
2023/02/28 09:53:21;;;;;;;21.03;8.37;;;9.80;93.70;;;;;;5048631;28;20179;-74
2023/02/28 09:55:52;;;;;;;19.67;8.45;;;9.80;93.90;;;;;;5052343;28;20186;-73
2023/02/28 09:58:36;;;;;;;23.23;10.07;;;9.90;93.50;;;;;;5048263;28;20199;-72
2023/02/28 10:01:18;;;;;;;23.67;9.67;;;10.00;93.30;;;;;;5049859;28;20563;-72
2023/02/28 10:03:57;;;;;;;20.63;9.15;;;10.00;93.50;;;;;;5051550;28;20680;-74
2023/02/28 10:06:30;;;;;;;19.25;8.68;;;10.10;93.70;;;;;;5050687;28;20224;-74
2023/02/28 10:09:09;;;;;;;19.00;9.70;;;10.20;93.70;;;;;;5046140;28;20692;-74
2023/02/28 10:11:37;;;;;;;10.75;5.65;;;10.20;93.30;;;;;;5049772;28;20262;-75
2023/02/28 10:14:20;;;;;;;8.60;5.07;;;10.40;93.30;;;;;;5043440;28;20179;-73
2023/02/28 10:17:08;;;;;;;7.63;4.00;;;10.50;93.40;;;;;;5049850;28;20734;-73
2023/02/28 10:20:14;;;;;;;4.30;2.95;;;10.60;93.10;;;;;;5047162;28;20284;-73
2023/02/28 10:23:16;;;;;;;6.43;2.25;;;10.80;93.10;;;;;;5016304;28;20619;-73
2023/02/28 10:25:47;;;;;;;7.35;2.47;;;11.00;92.90;;;;;;5018251;28;20593;-73
2023/02/28 10:28:20;;;;;;;3.33;2.85;;;11.20;91.90;;;;;;5017558;28;20237;-74
2023/02/28 10:30:49;;;;;;;3.78;2.80;;;11.40;90.80;;;;;;5019154;28;20271;-73
2023/02/28 10:33:35;;;;;;;4.28;2.95;;;11.50;90.50;;;;;;5017938;28;20274;-76
2023/02/28 10:36:02;;;;;;;5.75;2.45;;;11.60;89.90;;;;;;5000803;28;20742;-74
2023/02/28 10:38:33;;;;;;;2.80;2.55;;;11.80;89.90;;;;;;5017800;28;20180;-73
2023/02/28 10:41:09;;;;;;;9.55;3.10;;;11.90;89.30;;;;;;5015181;28;20183;-71
2023/02/28 10:43:36;;;;;;;8.38;3.05;;;12.10;88.70;;;;;;5015097;28;20200;-75
2023/02/28 10:46:03;;;;;;;3.17;2.17;;;12.30;89.10;;;;;;5014725;28;20188;-74
2023/02/28 10:48:33;;;;;;;6.10;2.28;;;12.60;87.40;;;;;;5018323;28;20195;-73
2023/02/28 10:50:59;;;;;;;6.03;2.78;;;13.00;86.90;;;;;;5000829;28;20790;-74
2023/02/28 10:53:32;;;;;;;3.47;2.47;;;13.50;86.70;;;;;;5016985;28;20334;-74
2023/02/28 10:56:03;;;;;;;2.33;2.13;;;14.20;84.00;;;;;;5023102;28;20664;-74
2023/02/28 10:58:50;;;;;;;5.00;2.92;;;15.10;81.80;;;;;;5048572;28;20183;-74
2023/02/28 11:01:17;;;;;;;4.57;2.88;;;15.70;79.70;;;;;;5051448;28;20186;-74
2023/02/28 11:03:43;;;;;;;4.03;2.90;;;16.20;77.40;;;;;;5049992;28;20272;-74
2023/02/28 11:06:23;;;;;;;5.40;2.92;;;16.70;78.10;;;;;;5053350;28;20183;-73
2023/02/28 11:09:35;;;;;;;5.53;2.78;;;17.30;72.40;;;;;;5054830;28;20187;-74
2023/02/28 11:12:04;;;;;;;3.63;2.58;;;17.50;73.00;;;;;;5038160;28;20294;-74
2023/02/28 11:14:34;;;;;;;4.00;3.17;;;18.20;73.80;;;;;;5041046;28;21101;-75
2023/02/28 11:17:13;;;;;;;4.70;3.20;;;18.80;71.70;;;;;;5041668;28;20223;-74
2023/02/28 11:19:44;;;;;;;5.53;3.42;;;19.20;70.60;;;;;;5042255;28;20629;-73
2023/02/28 11:22:10;;;;;;;5.75;3.40;;;19.60;69.30;;;;;;5042144;28;20716;-74
2023/02/28 11:24:46;;;;;;;4.75;3.88;;;19.80;68.50;;;;;;5040917;28;20237;-73
2023/02/28 11:27:30;;;;;;;6.95;3.13;;;19.90;67.20;;;;;;5040785;28;20183;-73
2023/02/28 11:29:57;;;;;;;6.07;3.30;;;19.60;67.80;;;;;;5041125;28;20580;-73
2023/02/28 11:32:25;;;;;;;5.10;3.78;;;19.40;68.30;;;;;;5043117;28;20582;-73
2023/02/28 11:35:17;;;;;;;6.05;3.60;;;19.40;68.60;;;;;;5025688;28;21092;-73
2023/02/28 11:37:45;;;;;;;4.55;3.58;;;18.80;67.80;;;;;;5041889;28;20230;-73
2023/02/28 11:40:21;;;;;;;8.05;3.92;;;17.90;68.60;;;;;;5041481;28;20669;-72
2023/02/28 11:43:01;;;;;;;5.95;3.25;;;17.80;70.70;;;;;;5038484;28;20286;-72
2023/02/28 11:45:45;;;;;;;7.85;3.45;;;17.80;70.40;;;;;;5040669;28;20630;-73
2023/02/28 11:48:32;;;;;;;3.92;2.83;;;17.80;70.40;;;;;;5040826;28;20209;-73
2023/02/28 11:51:27;;;;;;;6.70;3.55;;;18.10;70.30;;;;;;5051211;28;20768;-73
2023/02/28 11:54:05;;;;;;;9.43;4.45;;;18.60;70.00;;;;;;5021682;28;20238;-73
2023/02/28 11:56:51;;;;;;;5.45;3.50;;;19.20;68.20;;;;;;5017536;28;20216;-73
2023/02/28 11:59:46;;;;;;;6.20;3.90;;;19.60;67.90;;;;;;5019170;28;20257;-73
2023/02/28 12:02:24;;;;;;;7.72;3.80;;;19.90;66.30;;;;;;5020005;28;22379;-74
2023/02/28 12:05:05;;;;;;;12.68;4.05;;;19.90;66.70;;;;;;5019314;28;21508;-73
2023/02/28 12:08:00;;;;;;;8.18;3.40;;;20.00;66.40;;;;;;5030267;28;20196;-73
2023/02/28 12:10:32;;;;;;;4.15;3.75;;;20.10;66.10;;;;;;4962617;28;20285;-73
2023/02/28 12:13:37;;;;;;;7.40;3.83;;;20.10;66.30;;;;;;4960592;28;20265;-73
2023/02/28 12:16:24;;;;;;;12.55;3.67;;;20.00;65.60;;;;;;4903697;29;20203;-74
2023/02/28 12:19:02;;;;;;;10.05;3.45;;;19.60;65.50;;;;;;4904848;29;20287;-73
2023/02/28 12:22:02;;;;;;;4.55;3.60;;;19.50;66.50;;;;;;4904474;29;20204;-73
2023/02/28 12:24:37;;;;;;;5.15;3.97;;;19.50;66.70;;;;;;4877567;29;20197;-74
2023/02/28 12:27:09;;;;;;;5.60;3.75;;;19.30;66.50;;;;;;4876847;29;20244;-73
2023/02/28 12:29:48;;;;;;;5.60;3.65;;;19.20;66.40;;;;;;4879574;29;20205;-73
2023/02/28 12:32:23;;;;;;;7.32;3.70;;;19.00;66.30;;;;;;4865919;29;20225;-73
2023/02/28 12:34:57;;;;;;;3.88;3.28;;;18.70;67.00;;;;;;4866251;29;20245;-73
2023/02/28 12:37:43;;;;;;;4.75;3.15;;;18.50;67.30;;;;;;4863249;29;20639;-75
2023/02/28 12:40:16;;;;;;;6.20;3.22;;;18.20;67.30;;;;;;4864841;29;20193;-73
2023/02/28 12:43:04;;;;;;;6.85;3.60;;;17.40;69.10;;;;;;4866478;29;20202;-73
2023/02/28 12:45:48;;;;;;;4.60;3.03;;;17.20;69.90;;;;;;4866116;29;20190;-73
2023/02/28 12:48:26;;;;;;;6.65;3.78;;;17.20;70.30;;;;;;4933275;29;20823;-72
2023/02/28 12:50:52;;;;;;;5.05;3.13;;;16.80;70.30;;;;;;4929274;29;20227;-73
2023/02/28 12:53:28;;;;;;;5.70;3.63;;;16.40;71.10;;;;;;4984759;28;20844;-73
2023/02/28 12:56:12;;;;;;;4.25;3.45;;;16.00;72.20;;;;;;4981564;28;20253;-72
2023/02/28 12:58:45;;;;;;;6.60;3.10;;;15.50;73.10;;;;;;4998584;28;20199;-72
2023/02/28 13:01:27;;;;;;;6.32;3.20;;;15.10;74.20;;;;;;5028912;28;20183;-73
2023/02/28 13:04:14;;;;;;;4.45;3.83;;;15.00;74.20;;;;;;5051100;28;20207;-72
2023/02/28 13:06:58;;;;;;;3.28;2.97;;;14.90;74.90;;;;;;5051919;28;20191;-72
2023/02/28 13:09:23;;;;;;;14.68;3.08;;;14.90;74.50;;;;;;5045082;28;20194;-72
2023/02/28 13:11:53;;;;;;;8.95;2.42;;;15.00;74.90;;;;;;5049711;28;21032;-73
2023/02/28 13:14:28;;;;;;;7.43;3.10;;;15.00;74.40;;;;;;5049919;28;20195;-73